createdAt,value
2023-06-11T00:00:02.033Z,192.06
2023-06-11T00:01:02.028Z,192.90
2023-06-11T00:02:02.079Z,192.71
2023-06-11T00:03:02.133Z,194.21
2023-06-11T00:04:02.228Z,193.83
2023-06-11T00:05:02.138Z,192.69
2023-06-11T00:06:02.161Z,192.72
2023-06-11T00:07:02.311Z,192.12
2023-06-11T00:08:02.357Z,192.33
2023-06-11T00:09:02.304Z,192.93
2023-06-11T00:10:02.307Z,193.91
2023-06-11T00:11:02.346Z,193.48
2023-06-11T00:12:02.433Z,194.25
2023-06-11T00:13:02.452Z,196.00
2023-06-11T00:14:02.476Z,196.13
2023-06-11T00:15:02.567Z,195.53
2023-06-11T00:16:02.636Z,195.95
2023-06-11T00:17:02.659Z,195.74
2023-06-11T00:18:02.819Z,194.92
2023-06-11T00:19:02.690Z,195.51
2023-06-11T00:20:02.759Z,197.12
2023-06-11T00:21:02.789Z,197.98
2023-06-11T00:22:02.813Z,198.98
2023-06-11T00:23:02.864Z,197.23
2023-06-11T00:24:02.847Z,196.19
2023-06-11T00:25:02.877Z,196.44
2023-06-11T00:26:02.865Z,196.53
2023-06-11T00:27:02.980Z,196.13
2023-06-11T00:28:02.950Z,195.85
2023-06-11T00:29:02.925Z,195.02
2023-06-11T00:30:02.971Z,192.27
2023-06-11T00:31:03.061Z,190.35
2023-06-11T00:32:03.181Z,190.35
2023-06-11T00:33:03.217Z,189.00
2023-06-11T00:34:03.239Z,188.13
2023-06-11T00:35:03.232Z,187.16
2023-06-11T00:36:03.279Z,189.10
2023-06-11T00:37:03.292Z,189.14
2023-06-11T00:38:03.359Z,190.74
2023-06-11T00:39:03.420Z,192.27
2023-06-11T00:40:03.470Z,194.46
2023-06-11T00:41:03.503Z,195.49
2023-06-11T00:42:03.539Z,194.81
2023-06-11T00:43:03.594Z,195.94
2023-06-11T00:44:03.598Z,196.26
2023-06-11T00:45:03.605Z,196.76
2023-06-11T00:46:03.858Z,194.58
2023-06-11T00:47:03.676Z,193.15
2023-06-11T00:48:03.753Z,192.59
2023-06-11T00:49:03.737Z,191.38
2023-06-11T00:50:03.738Z,192.64
2023-06-11T00:51:03.751Z,194.01
2023-06-11T00:52:03.765Z,195.50
2023-06-11T00:53:03.776Z,195.00
2023-06-11T00:54:03.859Z,194.91
2023-06-11T00:55:03.800Z,192.72
2023-06-11T00:56:03.836Z,193.41
2023-06-11T00:57:03.843Z,194.35
2023-06-11T00:58:03.880Z,194.81
2023-06-11T00:59:03.877Z,196.55
2023-06-11T01:00:03.920Z,197.76
2023-06-11T01:01:04.009Z,196.51
2023-06-11T01:02:04.038Z,197.85
2023-06-11T01:03:04.125Z,198.83
2023-06-11T01:04:04.156Z,197.92
2023-06-11T01:05:04.198Z,197.26
2023-06-11T01:06:04.107Z,197.58
2023-06-11T01:07:04.183Z,196.51
2023-06-11T01:08:04.184Z,194.47
2023-06-11T01:09:04.236Z,196.66
2023-06-11T01:10:04.238Z,195.05
2023-06-11T01:11:04.287Z,194.83
2023-06-11T01:12:04.310Z,195.50
2023-06-11T01:13:04.305Z,196.87
2023-06-11T01:14:04.336Z,193.98
2023-06-11T01:15:04.416Z,193.54
2023-06-11T01:16:04.468Z,194.24
2023-06-11T01:17:04.505Z,195.08
2023-06-11T01:18:04.568Z,196.39
2023-06-11T01:19:04.584Z,195.66
2023-06-11T01:20:04.584Z,195.49
2023-06-11T01:21:04.590Z,198.15
2023-06-11T01:22:04.619Z,196.26
2023-06-11T01:23:04.640Z,194.69
2023-06-11T01:24:04.717Z,196.39
2023-06-11T01:25:04.719Z,197.01
2023-06-11T01:26:04.719Z,198.74
2023-06-11T01:27:04.793Z,198.73
2023-06-11T01:28:04.856Z,196.53
2023-06-11T01:29:04.907Z,196.53
2023-06-11T01:30:04.948Z,196.18
2023-06-11T01:31:05.048Z,196.93
2023-06-11T01:32:05.098Z,197.82
2023-06-11T01:33:05.132Z,197.86
2023-06-11T01:34:05.153Z,197.87
2023-06-11T01:35:06.118Z,198.65
2023-06-11T01:36:05.156Z,198.54
2023-06-11T01:37:05.213Z,199.43
2023-06-11T01:38:05.302Z,200.22
2023-06-11T01:39:05.303Z,199.75
2023-06-11T01:40:05.431Z,198.90
2023-06-11T01:41:05.376Z,198.59
2023-06-11T01:42:05.441Z,197.40
2023-06-11T01:43:05.420Z,196.30
2023-06-11T01:44:05.468Z,197.00
2023-06-11T01:45:05.487Z,198.81
2023-06-11T01:46:05.521Z,199.06
2023-06-11T01:47:05.615Z,199.15
2023-06-11T01:48:05.663Z,198.22
2023-06-11T01:49:05.721Z,197.11
2023-06-11T01:50:05.657Z,196.94
2023-06-11T01:51:05.702Z,197.58
2023-06-11T01:52:05.670Z,198.73
2023-06-11T01:53:05.696Z,198.06
2023-06-11T01:54:05.707Z,199.17
2023-06-11T01:55:05.764Z,200.22
2023-06-11T01:56:05.759Z,199.22
2023-06-11T01:57:05.815Z,199.30
2023-06-11T01:58:05.833Z,199.72
2023-06-11T01:59:05.841Z,198.36
2023-06-11T02:00:05.872Z,199.28
2023-06-11T02:01:05.891Z,199.32
2023-06-11T02:02:06.015Z,199.28
2023-06-11T02:03:05.982Z,198.04
2023-06-11T02:04:06.036Z,197.31
2023-06-11T02:05:06.064Z,197.79
2023-06-11T02:06:06.114Z,197.71
2023-06-11T02:07:06.151Z,198.00
2023-06-11T02:08:06.175Z,198.58
2023-06-11T02:09:06.187Z,199.49
2023-06-11T02:10:06.221Z,200.74
2023-06-11T02:11:06.260Z,199.31
2023-06-11T02:12:06.240Z,198.16
2023-06-11T02:13:06.273Z,197.13
2023-06-11T02:14:06.316Z,196.85
2023-06-11T02:15:06.339Z,195.25
2023-06-11T02:16:06.371Z,194.35
2023-06-11T02:17:06.449Z,191.92
2023-06-11T02:18:06.445Z,189.91
2023-06-11T02:19:06.465Z,188.09
2023-06-11T02:20:06.485Z,186.81
2023-06-11T02:21:06.481Z,185.72
2023-06-11T02:22:06.488Z,184.45
2023-06-11T02:23:06.559Z,186.53
2023-06-11T02:24:06.567Z,185.40
2023-06-11T02:25:06.557Z,184.68
2023-06-11T02:26:06.638Z,184.56
2023-06-11T02:27:06.625Z,187.56
2023-06-11T02:28:06.654Z,188.42
2023-06-11T02:29:06.654Z,187.88
2023-06-11T02:30:06.702Z,188.39
2023-06-11T02:31:06.765Z,187.73
2023-06-11T02:32:06.891Z,187.06
2023-06-11T02:33:06.921Z,187.94
2023-06-11T02:34:06.865Z,188.35
2023-06-11T02:35:06.853Z,187.89
2023-06-11T02:36:06.882Z,188.05
2023-06-11T02:37:06.902Z,189.77
2023-06-11T02:38:06.908Z,189.82
2023-06-11T02:39:06.976Z,190.14
2023-06-11T02:40:06.984Z,188.98
2023-06-11T02:41:06.978Z,189.03
2023-06-11T02:42:07.055Z,189.26
2023-06-11T02:43:07.019Z,190.14
2023-06-11T02:44:07.057Z,188.82
2023-06-11T02:45:07.070Z,191.08
2023-06-11T02:46:07.166Z,190.86
2023-06-11T02:47:07.127Z,189.06
2023-06-11T02:48:07.221Z,189.05
2023-06-11T02:49:07.189Z,188.92
2023-06-11T02:50:07.232Z,189.34
2023-06-11T02:51:07.314Z,190.26
2023-06-11T02:52:07.308Z,189.31
2023-06-11T02:53:07.328Z,189.86
2023-06-11T02:54:07.353Z,191.76
2023-06-11T02:55:07.386Z,192.17
2023-06-11T02:56:07.377Z,192.63
2023-06-11T02:57:07.390Z,192.06
2023-06-11T02:58:07.428Z,192.26
2023-06-11T02:59:07.477Z,191.63
2023-06-11T03:00:07.534Z,192.02
2023-06-11T03:01:07.564Z,191.04
2023-06-11T03:02:07.555Z,190.94
2023-06-11T03:03:07.641Z,192.33
2023-06-11T03:04:07.718Z,191.61
2023-06-11T03:05:07.816Z,190.34
2023-06-11T03:06:07.756Z,190.39
2023-06-11T03:07:07.755Z,189.93
2023-06-11T03:08:07.803Z,190.27
2023-06-11T03:09:07.818Z,190.47
2023-06-11T03:10:07.856Z,190.21
2023-06-11T03:11:07.905Z,189.07
2023-06-11T03:12:07.858Z,188.96
2023-06-11T03:13:07.947Z,187.74
2023-06-11T03:14:07.916Z,186.11
2023-06-11T03:15:08.048Z,184.24
2023-06-11T03:16:08.008Z,182.12
2023-06-11T03:17:08.015Z,181.67
2023-06-11T03:18:08.006Z,181.14
2023-06-11T03:19:08.039Z,180.76
2023-06-11T03:20:08.047Z,181.19
2023-06-11T03:21:08.044Z,180.32
2023-06-11T03:22:08.090Z,181.29
2023-06-11T03:23:08.101Z,181.32
2023-06-11T03:24:08.214Z,181.15
2023-06-11T03:25:08.321Z,180.50
2023-06-11T03:26:08.153Z,181.91
2023-06-11T03:27:08.164Z,181.67
2023-06-11T03:28:08.241Z,181.75
2023-06-11T03:29:08.273Z,182.65
2023-06-11T03:30:08.347Z,181.40
2023-06-11T03:31:08.370Z,180.81
2023-06-11T03:32:10.494Z,181.58
2023-06-11T03:33:08.438Z,181.63
2023-06-11T03:34:08.376Z,181.84
2023-06-11T03:35:08.737Z,181.78
2023-06-11T03:36:08.388Z,182.10
2023-06-11T03:37:08.360Z,182.32
2023-06-11T03:38:08.331Z,182.13
2023-06-11T03:39:08.362Z,181.32
2023-06-11T03:40:08.348Z,181.37
2023-06-11T03:41:08.358Z,179.52
2023-06-11T03:42:08.332Z,182.21
2023-06-11T03:43:08.332Z,182.48
2023-06-11T03:44:08.278Z,182.62
2023-06-11T03:45:08.345Z,181.09
2023-06-11T03:46:08.269Z,180.86
2023-06-11T03:47:08.295Z,180.06
2023-06-11T03:48:08.714Z,180.84
2023-06-11T03:49:08.274Z,181.60
2023-06-11T03:50:08.273Z,180.63
2023-06-11T03:51:08.232Z,181.23
2023-06-11T03:52:08.223Z,181.59
2023-06-11T03:53:08.236Z,179.48
2023-06-11T03:54:08.260Z,178.56
2023-06-11T03:55:08.576Z,179.09
2023-06-11T03:56:08.259Z,180.18
2023-06-11T03:57:08.220Z,179.65
2023-06-11T03:58:08.235Z,180.69
2023-06-11T03:59:08.197Z,181.54
2023-06-11T04:00:08.177Z,181.26
2023-06-11T04:01:08.183Z,181.50
2023-06-11T04:02:08.215Z,182.50
2023-06-11T04:03:08.490Z,182.37
2023-06-11T04:04:08.247Z,178.27
2023-06-11T04:05:08.529Z,180.49
2023-06-11T04:06:08.236Z,182.68
2023-06-11T04:07:08.281Z,182.90
2023-06-11T04:08:08.768Z,181.80
2023-06-11T04:09:08.338Z,182.90
2023-06-11T04:10:08.460Z,184.08
2023-06-11T04:11:08.516Z,181.90
2023-06-11T04:12:08.462Z,180.59
2023-06-11T04:13:08.529Z,181.49
2023-06-11T04:14:08.594Z,180.57
2023-06-11T04:15:08.907Z,182.00
2023-06-11T04:16:08.610Z,184.66
2023-06-11T04:17:08.686Z,186.67
2023-06-11T04:18:08.782Z,186.79
2023-06-11T04:19:08.748Z,186.59
2023-06-11T04:20:08.794Z,186.05
2023-06-11T04:21:08.776Z,183.97
2023-06-11T04:22:08.733Z,185.66
2023-06-11T04:23:08.796Z,186.22
2023-06-11T04:24:09.749Z,188.59
2023-06-11T04:25:09.161Z,187.08
2023-06-11T04:26:09.078Z,185.87
2023-06-11T04:27:09.012Z,184.47
2023-06-11T04:28:09.033Z,185.81
2023-06-11T04:29:09.092Z,186.38
2023-06-11T04:30:09.168Z,186.54
2023-06-11T04:31:09.195Z,187.18
2023-06-11T04:32:09.236Z,187.79
2023-06-11T04:33:09.354Z,187.86
2023-06-11T04:34:09.300Z,187.29
2023-06-11T04:35:10.099Z,189.18
2023-06-11T04:36:09.299Z,188.69
2023-06-11T04:37:09.339Z,189.97
2023-06-11T04:38:09.278Z,191.08
2023-06-11T04:39:09.271Z,191.66
2023-06-11T04:40:09.295Z,192.25
2023-06-11T04:41:09.304Z,191.27
2023-06-11T04:42:09.268Z,189.54
2023-06-11T04:43:09.261Z,189.88
2023-06-11T04:44:09.274Z,190.98
2023-06-11T04:45:09.480Z,188.02
2023-06-11T04:46:09.248Z,186.09
2023-06-11T04:47:09.243Z,183.01
2023-06-11T04:48:09.227Z,183.52
2023-06-11T04:49:09.259Z,183.25
2023-06-11T04:50:09.199Z,182.49
2023-06-11T04:51:09.206Z,184.46
2023-06-11T04:52:09.227Z,184.14
2023-06-11T04:53:09.206Z,185.04
2023-06-11T04:54:09.185Z,187.48
2023-06-11T04:55:09.565Z,186.42
2023-06-11T04:56:09.157Z,185.33
2023-06-11T04:57:09.150Z,184.27
2023-06-11T04:58:09.135Z,183.39
2023-06-11T04:59:09.164Z,183.52
2023-06-11T05:00:09.379Z,183.84
2023-06-11T05:01:09.137Z,182.72
2023-06-11T05:02:09.152Z,180.87
2023-06-11T05:03:09.238Z,182.56
2023-06-11T05:04:09.092Z,180.10
2023-06-11T05:05:09.408Z,180.09
2023-06-11T05:06:09.102Z,179.03
2023-06-11T05:07:09.131Z,178.76
2023-06-11T05:08:09.084Z,178.46
2023-06-11T05:09:09.110Z,178.16
2023-06-11T05:10:09.082Z,177.32
2023-06-11T05:11:09.081Z,176.93
2023-06-11T05:12:09.059Z,176.64
2023-06-11T05:13:09.069Z,177.91
2023-06-11T05:14:09.066Z,176.25
2023-06-11T05:16:09.043Z,180.33
2023-06-11T05:17:09.039Z,182.42
2023-06-11T05:18:09.089Z,185.43
2023-06-11T05:19:09.023Z,183.53
2023-06-11T05:20:09.073Z,179.38
2023-06-11T05:21:09.018Z,180.32
2023-06-11T05:22:09.036Z,181.72
2023-06-11T05:23:08.977Z,184.68
2023-06-11T05:24:09.271Z,182.28
2023-06-11T05:25:09.144Z,179.50
2023-06-11T05:26:08.953Z,180.70
2023-06-11T05:27:08.967Z,182.21
2023-06-11T05:28:08.960Z,181.20
2023-06-11T05:29:08.974Z,181.01
2023-06-11T05:30:08.933Z,183.43
2023-06-11T05:31:08.926Z,180.81
2023-06-11T05:32:08.972Z,180.92
2023-06-11T05:33:08.929Z,181.93
2023-06-11T05:34:08.905Z,182.57
2023-06-11T05:35:09.132Z,181.81
2023-06-11T05:36:08.871Z,180.00
2023-06-11T05:37:08.934Z,176.67
2023-06-11T05:38:09.283Z,168.02
2023-06-11T05:39:08.922Z,165.05
2023-06-11T05:40:08.951Z,161.90
2023-06-11T05:41:08.953Z,161.24
2023-06-11T05:42:09.013Z,160.03
2023-06-11T05:43:09.041Z,160.80
2023-06-11T05:44:09.037Z,156.93
2023-06-11T05:45:09.276Z,157.74
2023-06-11T05:46:09.118Z,161.18
2023-06-11T05:47:09.171Z,159.51
2023-06-11T05:48:09.213Z,158.77
2023-06-11T05:49:09.199Z,160.58
2023-06-11T05:50:09.252Z,157.29
2023-06-11T05:51:09.294Z,157.14
2023-06-11T05:52:09.281Z,154.89
2023-06-11T05:53:09.287Z,154.14
2023-06-11T05:54:09.281Z,155.00
2023-06-11T05:55:09.628Z,151.86
2023-06-11T05:56:09.350Z,144.77
2023-06-11T05:57:09.418Z,147.12
2023-06-11T05:58:09.417Z,150.55
2023-06-11T05:59:09.489Z,149.38
2023-06-11T06:00:09.471Z,153.08
2023-06-11T06:01:09.547Z,155.05
2023-06-11T06:02:09.700Z,154.56
2023-06-11T06:03:09.747Z,153.75
2023-06-11T06:04:09.749Z,154.58
2023-06-11T06:05:10.025Z,158.56
2023-06-11T06:06:09.672Z,155.90
2023-06-11T06:07:09.744Z,152.73
2023-06-11T06:08:09.755Z,153.29
2023-06-11T06:09:09.780Z,147.00
2023-06-11T06:10:09.811Z,147.57
2023-06-11T06:11:09.872Z,148.03
2023-06-11T06:12:09.891Z,146.23
2023-06-11T06:13:09.933Z,137.39
2023-06-11T06:14:09.999Z,134.80
2023-06-11T06:15:10.328Z,139.36
2023-06-11T06:16:10.046Z,138.67
2023-06-11T06:17:10.011Z,133.46
2023-06-11T06:18:10.148Z,130.98
2023-06-11T06:19:10.187Z,132.18
2023-06-11T06:20:10.195Z,127.82
2023-06-11T06:21:10.198Z,128.92
2023-06-11T06:22:10.282Z,130.52
2023-06-11T06:23:10.255Z,127.74
2023-06-11T06:24:10.322Z,123.09
2023-06-11T06:25:10.469Z,116.89
2023-06-11T06:26:10.330Z,116.88
2023-06-11T06:27:10.411Z,120.97
2023-06-11T06:28:10.421Z,126.69
2023-06-11T06:29:10.431Z,124.98
2023-06-11T06:30:10.452Z,120.32
2023-06-11T06:31:10.568Z,126.41
2023-06-11T06:32:10.625Z,130.72
2023-06-11T06:33:10.574Z,129.19
2023-06-11T06:34:10.602Z,129.57
2023-06-11T06:35:10.936Z,130.90
2023-06-11T06:36:10.707Z,118.38
2023-06-11T06:37:10.722Z,108.10
2023-06-11T06:38:10.788Z,103.93
2023-06-11T06:39:10.798Z,102.35
2023-06-11T06:40:11.018Z,100.86
2023-06-11T06:41:10.837Z,101.96
2023-06-11T06:42:10.914Z,98.35
2023-06-11T06:43:10.921Z,96.88
2023-06-11T06:44:10.975Z,88.74
2023-06-11T06:45:11.937Z,88.75
2023-06-11T06:46:10.995Z,87.30
2023-06-11T06:47:10.973Z,89.30
2023-06-11T06:48:11.111Z,92.18
2023-06-11T06:49:10.966Z,84.82
2023-06-11T06:50:11.194Z,78.19
2023-06-11T06:51:10.990Z,79.65
2023-06-11T06:52:10.920Z,84.63
2023-06-11T06:53:10.930Z,83.12
2023-06-11T06:54:10.938Z,87.02
2023-06-11T06:55:10.968Z,87.54
2023-06-11T06:56:10.928Z,89.70
2023-06-11T06:57:10.941Z,86.44
2023-06-11T06:58:10.930Z,83.24
2023-06-11T06:59:10.942Z,80.35
2023-06-11T07:00:11.185Z,79.99
2023-06-11T07:01:10.929Z,78.63
2023-06-11T07:02:10.895Z,77.50
2023-06-11T07:03:10.911Z,77.35
2023-06-11T07:04:10.867Z,83.26
2023-06-11T07:05:10.886Z,91.99
2023-06-11T07:06:10.906Z,96.07
2023-06-11T07:07:10.843Z,94.40
2023-06-11T07:08:10.825Z,90.43
2023-06-11T07:09:10.840Z,92.89
2023-06-11T07:10:11.154Z,99.84
2023-06-11T07:11:10.865Z,97.17
2023-06-11T07:12:10.821Z,96.52
2023-06-11T07:13:10.831Z,98.11
2023-06-11T07:14:10.801Z,99.88
2023-06-11T07:15:10.840Z,106.08
2023-06-11T07:16:10.866Z,109.46
2023-06-11T07:17:10.774Z,109.38
2023-06-11T07:18:10.816Z,110.82
2023-06-11T07:19:10.744Z,110.95
2023-06-11T07:20:11.095Z,107.45
2023-06-11T07:21:10.886Z,105.36
2023-06-11T07:22:10.758Z,107.66
2023-06-11T07:23:10.728Z,108.01
2023-06-11T07:24:10.768Z,105.71
2023-06-11T07:25:10.744Z,108.27
2023-06-11T07:26:10.736Z,106.04
2023-06-11T07:27:10.705Z,109.56
2023-06-11T07:28:10.702Z,111.34
2023-06-11T07:29:12.786Z,111.37
2023-06-11T07:30:10.939Z,115.30
2023-06-11T07:31:10.681Z,121.62
2023-06-11T07:32:10.762Z,121.20
2023-06-11T07:33:10.807Z,122.37
2023-06-11T07:34:10.825Z,114.87
2023-06-11T07:35:10.806Z,118.43
2023-06-11T07:36:10.861Z,121.25
2023-06-11T07:37:10.876Z,120.56
2023-06-11T07:38:10.936Z,117.99
2023-06-11T07:39:10.912Z,115.32
2023-06-11T07:40:11.244Z,115.92
2023-06-11T07:41:11.003Z,115.97
2023-06-11T07:42:11.023Z,118.74
2023-06-11T07:43:11.058Z,114.38
2023-06-11T07:44:11.041Z,108.28
2023-06-11T07:45:11.148Z,107.74
2023-06-11T07:46:12.807Z,106.99
2023-06-11T07:47:11.158Z,105.46
2023-06-11T07:48:11.242Z,101.41
2023-06-11T07:49:11.203Z,98.11
2023-06-11T07:50:11.283Z,105.30
2023-06-11T07:51:11.237Z,110.40
2023-06-11T07:52:11.251Z,109.17
2023-06-11T07:53:11.269Z,114.03
2023-06-11T07:54:11.295Z,107.93
2023-06-11T07:55:11.326Z,106.26
2023-06-11T07:56:11.340Z,106.49
2023-06-11T07:57:11.352Z,107.10
2023-06-11T07:58:11.357Z,108.33
2023-06-11T07:59:11.383Z,105.07
2023-06-11T08:00:11.726Z,107.03
2023-06-11T08:01:11.478Z,107.86
2023-06-11T08:02:11.600Z,115.37
2023-06-11T08:03:11.599Z,113.19
2023-06-11T08:04:11.585Z,118.22
2023-06-11T08:05:11.633Z,126.87
2023-06-11T08:06:11.824Z,112.37
2023-06-11T08:07:11.708Z,118.70
2023-06-11T08:08:11.719Z,121.47
2023-06-11T08:09:11.740Z,114.88
2023-06-11T08:10:11.893Z,112.24
2023-06-11T08:11:11.812Z,106.42
2023-06-11T08:12:11.829Z,98.43
2023-06-11T08:13:11.871Z,89.52
2023-06-11T08:14:11.932Z,86.32
2023-06-11T08:15:12.001Z,87.88
2023-06-11T08:16:12.053Z,85.04
2023-06-11T08:17:12.090Z,86.99
2023-06-11T08:18:12.110Z,82.41
2023-06-11T08:19:12.094Z,71.50
2023-06-11T08:20:12.362Z,68.99
2023-06-11T08:21:12.174Z,58.98
2023-06-11T08:22:12.179Z,67.58
2023-06-11T08:23:12.181Z,74.48
2023-06-11T08:24:12.302Z,71.11
2023-06-11T08:25:12.300Z,67.14
2023-06-11T08:26:12.309Z,66.93
2023-06-11T08:27:12.322Z,57.61
2023-06-11T08:28:12.357Z,52.50
2023-06-11T08:29:12.427Z,49.41
2023-06-11T08:30:12.626Z,41.10
2023-06-11T08:31:12.490Z,53.91
2023-06-11T08:32:12.567Z,58.15
2023-06-11T08:33:12.573Z,53.14
2023-06-11T08:34:12.584Z,53.39
2023-06-11T08:35:12.653Z,53.26
2023-06-11T08:36:12.563Z,47.89
2023-06-11T08:37:12.611Z,54.54
2023-06-11T08:38:12.642Z,63.69
2023-06-11T08:39:12.646Z,50.32
2023-06-11T08:40:12.897Z,54.71
2023-06-11T08:41:12.719Z,58.69
2023-06-11T08:42:12.716Z,46.91
2023-06-11T08:43:12.776Z,40.47
2023-06-11T08:44:12.844Z,37.59
2023-06-11T08:45:12.906Z,32.29
2023-06-11T08:46:12.889Z,34.97
2023-06-11T08:47:12.892Z,33.13
2023-06-11T08:48:12.974Z,29.87
2023-06-11T08:49:12.979Z,23.76
2023-06-11T08:50:13.133Z,24.78
2023-06-11T08:51:13.021Z,27.88
2023-06-11T08:52:13.069Z,35.49
2023-06-11T08:53:13.025Z,44.80
2023-06-11T08:54:13.048Z,47.39
2023-06-11T08:55:13.105Z,49.20
2023-06-11T08:56:13.122Z,51.60
2023-06-11T08:57:13.155Z,50.62
2023-06-11T08:58:13.190Z,48.00
2023-06-11T08:59:13.192Z,47.72
2023-06-11T09:00:13.512Z,41.65
2023-06-11T09:01:13.253Z,35.61
2023-06-11T09:02:13.298Z,36.89
2023-06-11T09:03:13.369Z,65.58
2023-06-11T09:04:13.384Z,39.31
2023-06-11T09:05:13.423Z,43.21
2023-06-11T09:06:13.420Z,44.45
2023-06-11T09:07:13.448Z,48.31
2023-06-11T09:08:13.532Z,50.82
2023-06-11T09:09:13.465Z,60.73
2023-06-11T09:10:13.613Z,74.42
2023-06-11T09:11:13.554Z,70.49
2023-06-11T09:12:13.568Z,77.94
2023-06-11T09:13:13.621Z,75.37
2023-06-11T09:14:13.628Z,73.65
2023-06-11T09:15:13.664Z,74.24
2023-06-11T09:16:13.771Z,77.52
2023-06-11T09:17:13.725Z,74.46
2023-06-11T09:18:13.838Z,74.76
2023-06-11T09:19:13.814Z,79.82
2023-06-11T09:20:14.259Z,84.37
2023-06-11T09:21:13.865Z,83.78
2023-06-11T09:22:13.914Z,79.66
2023-06-11T09:23:13.912Z,73.86
2023-06-11T09:24:13.985Z,71.94
2023-06-11T09:25:14.204Z,69.20
2023-06-11T09:26:14.051Z,64.15
2023-06-11T09:27:14.083Z,66.81
2023-06-11T09:28:14.091Z,74.85
2023-06-11T09:29:14.150Z,75.55
2023-06-11T09:30:14.573Z,76.13
2023-06-11T09:31:14.204Z,74.37
2023-06-11T09:32:32.503Z,70.36
2023-06-11T09:33:15.299Z,70.57
2023-06-11T09:34:14.220Z,70.69
2023-06-11T09:35:14.207Z,70.83
2023-06-11T09:36:14.247Z,71.21
2023-06-11T09:37:14.193Z,70.89
2023-06-11T09:38:14.208Z,70.97
2023-06-11T09:39:14.197Z,72.90
2023-06-11T09:40:14.289Z,74.87
2023-06-11T09:41:14.160Z,72.59
2023-06-11T09:42:14.177Z,75.55
2023-06-11T09:43:14.184Z,73.24
2023-06-11T09:44:14.128Z,71.53
2023-06-11T09:45:14.141Z,71.56
2023-06-11T09:46:14.226Z,70.36
2023-06-11T09:47:14.156Z,64.15
2023-06-11T09:48:14.159Z,62.82
2023-06-11T09:49:14.171Z,63.89
2023-06-11T09:50:14.297Z,59.21
2023-06-11T09:51:14.232Z,61.83
2023-06-11T09:52:14.271Z,62.55
2023-06-11T09:53:14.294Z,64.73
2023-06-11T09:54:14.313Z,61.82
2023-06-11T09:55:14.387Z,59.16
2023-06-11T09:56:14.423Z,60.87
2023-06-11T09:57:14.425Z,61.93
2023-06-11T09:58:14.469Z,52.81
2023-06-11T09:59:14.474Z,52.55
2023-06-11T10:00:15.357Z,50.27
2023-06-11T10:01:14.546Z,56.93
2023-06-11T10:02:14.570Z,62.97
2023-06-11T10:03:14.670Z,59.48
2023-06-11T10:04:14.681Z,56.41
2023-06-11T10:05:14.898Z,56.10
2023-06-11T10:06:17.014Z,49.70
2023-06-11T10:07:14.672Z,49.78
2023-06-11T10:08:14.682Z,46.37
2023-06-11T10:09:14.645Z,51.82
2023-06-11T10:10:14.663Z,58.92
2023-06-11T10:11:14.683Z,63.36
2023-06-11T10:12:17.151Z,50.68
2023-06-11T10:13:14.650Z,50.42
2023-06-11T10:14:14.673Z,46.13
2023-06-11T10:15:14.720Z,44.61
2023-06-11T10:16:14.631Z,58.61
2023-06-11T10:17:14.609Z,52.63
2023-06-11T10:18:14.677Z,53.62
2023-06-11T10:19:14.625Z,53.21
2023-06-11T10:20:14.656Z,54.87
2023-06-11T10:21:14.618Z,52.91
2023-06-11T10:22:14.555Z,57.72
2023-06-11T10:23:14.617Z,53.70
2023-06-11T10:24:14.586Z,54.05
2023-06-11T10:25:14.548Z,47.63
2023-06-11T10:26:14.613Z,52.88
2023-06-11T10:27:14.591Z,56.20
2023-06-11T10:28:14.633Z,59.26
2023-06-11T10:29:14.559Z,59.62
2023-06-11T10:30:14.702Z,53.32
2023-06-11T10:31:14.570Z,53.70
2023-06-11T10:32:14.566Z,50.37
2023-06-11T10:33:14.621Z,48.76
2023-06-11T10:34:15.070Z,50.43
2023-06-11T10:35:14.580Z,51.78
2023-06-11T10:36:14.487Z,56.04
2023-06-11T10:37:14.489Z,57.61
2023-06-11T10:38:14.519Z,56.65
2023-06-11T10:39:14.510Z,58.90
2023-06-11T10:40:15.977Z,51.00
2023-06-11T10:41:14.481Z,51.01
2023-06-11T10:42:14.472Z,51.58
2023-06-11T10:43:14.453Z,51.03
2023-06-11T10:44:14.443Z,45.35
2023-06-11T10:45:14.482Z,51.02
2023-06-11T10:46:14.473Z,52.38
2023-06-11T10:47:14.428Z,46.50
2023-06-11T10:48:14.461Z,50.93
2023-06-11T10:49:15.172Z,54.93
2023-06-11T10:50:14.709Z,63.93
2023-06-11T10:51:14.447Z,57.81
2023-06-11T10:52:14.434Z,48.86
2023-06-11T10:53:14.680Z,51.09
2023-06-11T10:54:14.419Z,51.67
2023-06-11T10:55:14.398Z,48.64
2023-06-11T10:56:14.472Z,49.23
2023-06-11T10:57:14.390Z,47.19
2023-06-11T10:58:16.716Z,51.04
2023-06-11T10:59:14.378Z,51.18
2023-06-11T11:00:14.350Z,53.31
2023-06-11T11:01:14.360Z,54.17
2023-06-11T11:02:14.412Z,55.12
2023-06-11T11:03:14.414Z,63.96
2023-06-11T11:04:14.437Z,64.17
2023-06-11T11:05:14.708Z,63.50
2023-06-11T11:06:14.353Z,59.72
2023-06-11T11:07:14.308Z,72.82
2023-06-11T11:08:16.798Z,67.22
2023-06-11T11:09:14.323Z,66.86
2023-06-11T11:10:14.390Z,59.18
2023-06-11T11:11:14.293Z,60.03
2023-06-11T11:12:14.274Z,63.59
2023-06-11T11:13:14.308Z,69.81
2023-06-11T11:14:14.260Z,76.30
2023-06-11T11:15:14.265Z,76.67
2023-06-11T11:16:14.277Z,68.97
2023-06-11T11:17:14.266Z,80.05
2023-06-11T11:18:14.228Z,74.58
2023-06-11T11:19:16.547Z,70.05
2023-06-11T11:20:14.468Z,66.93
2023-06-11T11:21:14.481Z,61.63
2023-06-11T11:22:14.512Z,70.84
2023-06-11T11:23:14.483Z,76.07
2023-06-11T11:24:14.524Z,73.43
2023-06-11T11:25:14.580Z,79.61
2023-06-11T11:26:14.551Z,85.16
2023-06-11T11:27:14.576Z,76.30
2023-06-11T11:28:14.613Z,80.51
2023-06-11T11:29:14.676Z,75.57
2023-06-11T11:30:14.788Z,79.00
2023-06-11T11:31:14.727Z,75.02
2023-06-11T11:32:14.835Z,76.79
2023-06-11T11:33:14.811Z,72.83
2023-06-11T11:34:14.744Z,71.30
2023-06-11T11:35:14.858Z,90.74
2023-06-11T11:36:14.816Z,74.84
2023-06-11T11:37:14.861Z,69.37
2023-06-11T11:38:14.946Z,65.07
2023-06-11T11:39:15.073Z,73.63
2023-06-11T11:40:15.423Z,83.24
2023-06-11T11:41:15.012Z,76.48
2023-06-11T11:42:15.056Z,77.74
2023-06-11T11:43:15.073Z,75.71
2023-06-11T11:44:15.120Z,82.90
2023-06-11T11:45:15.156Z,67.59
2023-06-11T11:46:15.305Z,54.47
2023-06-11T11:47:15.273Z,56.81
2023-06-11T11:48:15.277Z,55.87
2023-06-11T11:49:15.296Z,70.96
2023-06-11T11:50:15.302Z,41.03
2023-06-11T11:51:15.318Z,34.63
2023-06-11T11:52:15.395Z,33.11
2023-06-11T11:53:15.384Z,35.01
2023-06-11T11:54:15.453Z,41.56
2023-06-11T11:55:15.437Z,43.97
2023-06-11T11:56:15.506Z,42.55
2023-06-11T11:57:15.494Z,42.94
2023-06-11T11:58:15.506Z,44.09
2023-06-11T11:59:15.504Z,38.28
2023-06-11T12:01:04.559Z,50.00
2023-06-11T12:02:04.558Z,50.00
2023-06-11T12:03:04.734Z,50.00
2023-06-11T12:04:04.644Z,50.00
2023-06-11T12:05:04.554Z,50.00
2023-06-11T12:06:04.552Z,107.63
2023-06-11T12:07:24.472Z,50.00
2023-06-11T12:08:24.521Z,50.00
2023-06-11T12:09:24.525Z,50.00
2023-06-11T12:10:25.383Z,50.00
2023-06-11T12:11:24.516Z,50.00
2023-06-11T12:12:24.508Z,64.53
2023-06-11T12:13:24.495Z,56.67
2023-06-11T12:14:24.486Z,66.82
2023-06-11T12:15:24.463Z,75.52
2023-06-11T12:16:24.512Z,56.67
2023-06-11T12:17:24.540Z,49.62
2023-06-11T12:18:24.444Z,71.20
2023-06-11T12:19:24.885Z,56.17
2023-06-11T12:20:24.416Z,47.13
2023-06-11T12:21:24.459Z,38.07
2023-06-11T12:22:24.390Z,57.78
2023-06-11T12:23:24.446Z,51.66
2023-06-11T12:24:24.672Z,41.61
2023-06-11T12:25:24.572Z,43.67
2023-06-11T12:26:24.398Z,57.77
2023-06-11T12:27:24.373Z,60.54
2023-06-11T12:28:24.395Z,23.43
2023-06-11T12:29:24.414Z,41.77
2023-06-11T12:30:24.374Z,47.39
2023-06-11T12:31:24.449Z,55.54
2023-06-11T12:32:24.853Z,24.52
2023-06-11T12:33:24.337Z,71.37
2023-06-11T12:34:24.336Z,60.78
2023-06-11T12:35:24.297Z,76.12
2023-06-11T12:36:24.322Z,79.25
2023-06-11T12:37:24.303Z,81.29
2023-06-11T12:38:24.321Z,112.99
2023-06-11T12:39:24.325Z,109.55